createdAt,value
2018-05-25T00:01:53.713Z,1.87
2018-05-25T00:06:56.936Z,2.00
2018-05-25T00:12:00.172Z,1.80
2018-05-25T00:17:04.389Z,2.20
2018-05-25T00:22:07.704Z,2.22
2018-05-25T00:27:11.318Z,2.20
2018-05-25T00:32:14.547Z,2.00
2018-05-25T00:37:17.783Z,2.42
2018-05-25T00:42:21.039Z,2.50
2018-05-25T00:47:24.663Z,2.45
2018-05-25T00:52:28.364Z,2.67
2018-05-25T00:57:31.596Z,2.20
2018-05-25T01:02:34.822Z,2.70
2018-05-25T01:07:38.056Z,2.85
2018-05-25T01:12:41.412Z,2.17
2018-05-25T01:17:44.673Z,2.53
2018-05-25T01:22:48.522Z,3.03
2018-05-25T01:27:52.152Z,2.70
2018-05-25T01:32:55.767Z,2.62
2018-05-25T01:37:59.393Z,2.62
2018-05-25T01:43:02.644Z,2.92
2018-05-25T01:48:05.975Z,3.10
2018-05-25T01:53:09.695Z,3.33
2018-05-25T01:58:13.143Z,3.03
2018-05-25T02:03:16.373Z,2.95
2018-05-25T02:08:19.613Z,3.12
2018-05-25T02:13:23.241Z,3.78
2018-05-25T02:18:26.871Z,3.65
2018-05-25T02:23:30.111Z,3.87
2018-05-25T02:28:33.386Z,3.22
2018-05-25T02:33:36.612Z,3.70
2018-05-25T02:38:39.857Z,3.53
2018-05-25T02:43:43.087Z,3.30
2018-05-25T02:48:46.718Z,3.47
2018-05-25T02:53:49.943Z,3.17
2018-05-25T02:58:53.180Z,2.85
2018-05-25T03:03:57.415Z,2.92
2018-05-25T03:09:00.652Z,3.12
2018-05-25T03:14:04.280Z,2.85
2018-05-25T03:19:07.529Z,2.85
2018-05-25T03:24:10.753Z,2.95
2018-05-25T03:29:13.999Z,3.00
2018-05-25T03:34:17.213Z,3.25
2018-05-25T03:39:20.424Z,2.97
2018-05-25T03:44:23.670Z,3.85
2018-05-25T03:49:26.997Z,3.35
2018-05-25T03:54:30.642Z,3.35
2018-05-25T03:59:46.493Z,3.58
2018-05-25T04:04:49.755Z,3.60
2018-05-25T04:09:53.028Z,3.72
2018-05-25T04:14:56.344Z,3.78
2018-05-25T04:19:59.965Z,4.12
2018-05-25T04:25:03.260Z,3.92
2018-05-25T04:30:06.989Z,3.45
2018-05-25T04:35:11.426Z,4.00
2018-05-25T04:40:15.083Z,3.92
2018-05-25T04:45:18.302Z,3.70
2018-05-25T04:50:21.630Z,4.22
2018-05-25T04:55:24.891Z,3.95
2018-05-25T05:00:28.140Z,4.10
2018-05-25T05:05:31.377Z,3.50
2018-05-25T05:10:35.001Z,3.85
2018-05-25T05:15:38.352Z,3.72
2018-05-25T05:20:41.690Z,3.53
2018-05-25T05:25:45.002Z,3.58
2018-05-25T05:30:48.639Z,3.70
2018-05-25T05:35:52.051Z,3.67
2018-05-25T05:40:55.556Z,3.70
2018-05-25T05:45:58.952Z,3.20
2018-05-25T05:51:02.602Z,3.42
2018-05-25T05:56:05.841Z,3.80
2018-05-25T06:01:09.221Z,3.58
2018-05-25T06:06:12.461Z,3.55
2018-05-25T06:11:15.737Z,3.58
2018-05-25T06:16:19.118Z,3.72
2018-05-25T06:21:22.357Z,3.53
2018-05-25T06:26:25.729Z,4.10
2018-05-25T06:31:29.563Z,3.53
2018-05-25T06:36:32.944Z,3.78
2018-05-25T06:41:36.845Z,4.07
